sensor_id;sensor_type;location;lat;lon;timestamp;P1;P2;P0
75946;PMS5003;64628;50.104;14.614;2023-06-26T00:00:41;36;32;
75946;PMS5003;64628;50.104;14.614;2023-06-26T00:03:06;47;44;
75946;PMS5003;64628;50.104;14.614;2023-06-26T00:05:31;54;51;
75946;PMS5003;64628;50.104;14.614;2023-06-26T00:07:57;47;46;
75946;PMS5003;64628;50.104;14.614;2023-06-26T00:10:22;85;81;
75946;PMS5003;64628;50.104;14.614;2023-06-26T00:12:48;42;38;
75946;PMS5003;64628;50.104;14.614;2023-06-26T00:15:14;69;68;
75946;PMS5003;64628;50.104;14.614;2023-06-26T00:17:39;37;35;
75946;PMS5003;64628;50.104;14.614;2023-06-26T00:20:05;39;38;
75946;PMS5003;64628;50.104;14.614;2023-06-26T00:22:30;42;38;
75946;PMS5003;64628;50.104;14.614;2023-06-26T00:24:56;40;40;
75946;PMS5003;64628;50.104;14.614;2023-06-26T00:27:21;35;34;
75946;PMS5003;64628;50.104;14.614;2023-06-26T00:29:46;36;35;
75946;PMS5003;64628;50.104;14.614;2023-06-26T00:32:11;35;33;
75946;PMS5003;64628;50.104;14.614;2023-06-26T00:34:37;40;39;
75946;PMS5003;64628;50.104;14.614;2023-06-26T00:37:02;40;40;
75946;PMS5003;64628;50.104;14.614;2023-06-26T00:39:27;42;42;
75946;PMS5003;64628;50.104;14.614;2023-06-26T00:41:53;51;50;
75946;PMS5003;64628;50.104;14.614;2023-06-26T00:44:18;42;42;
75946;PMS5003;64628;50.104;14.614;2023-06-26T00:46:43;42;42;
75946;PMS5003;64628;50.104;14.614;2023-06-26T00:49:09;37;36;
75946;PMS5003;64628;50.104;14.614;2023-06-26T00:51:35;38;38;
75946;PMS5003;64628;50.104;14.614;2023-06-26T00:54:00;39;39;
75946;PMS5003;64628;50.104;14.614;2023-06-26T00:56:25;37;37;
75946;PMS5003;64628;50.104;14.614;2023-06-26T00:58:51;36;36;
75946;PMS5003;64628;50.104;14.614;2023-06-26T01:01:16;50;49;
75946;PMS5003;64628;50.104;14.614;2023-06-26T01:03:42;40;40;
75946;PMS5003;64628;50.104;14.614;2023-06-26T01:06:08;36;36;
75946;PMS5003;64628;50.104;14.614;2023-06-26T01:08:34;35;35;
75946;PMS5003;64628;50.104;14.614;2023-06-26T01:10:59;31;31;
75946;PMS5003;64628;50.104;14.614;2023-06-26T01:13:25;29;28;
75946;PMS5003;64628;50.104;14.614;2023-06-26T01:15:50;33;30;
75946;PMS5003;64628;50.104;14.614;2023-06-26T01:18:16;22;20;
75946;PMS5003;64628;50.104;14.614;2023-06-26T01:20:41;22;17;
75946;PMS5003;64628;50.104;14.614;2023-06-26T01:23:13;18;18;
75946;PMS5003;64628;50.104;14.614;2023-06-26T01:25:34;22;21;
75946;PMS5003;64628;50.104;14.614;2023-06-26T01:27:57;21;18;
75946;PMS5003;64628;50.104;14.614;2023-06-26T01:30:22;22;22;
75946;PMS5003;64628;50.104;14.614;2023-06-26T01:32:48;19;17;
75946;PMS5003;64628;50.104;14.614;2023-06-26T01:35:13;18;18;
75946;PMS5003;64628;50.104;14.614;2023-06-26T01:37:39;18;16;
75946;PMS5003;64628;50.104;14.614;2023-06-26T01:40:04;25;25;
75946;PMS5003;64628;50.104;14.614;2023-06-26T01:42:29;25;24;
75946;PMS5003;64628;50.104;14.614;2023-06-26T01:44:55;24;22;
75946;PMS5003;64628;50.104;14.614;2023-06-26T01:47:21;18;18;
75946;PMS5003;64628;50.104;14.614;2023-06-26T01:49:47;25;23;
75946;PMS5003;64628;50.104;14.614;2023-06-26T01:52:14;19;18;
75946;PMS5003;64628;50.104;14.614;2023-06-26T01:54:37;25;24;
75946;PMS5003;64628;50.104;14.614;2023-06-26T01:57:03;23;19;
75946;PMS5003;64628;50.104;14.614;2023-06-26T01:59:28;22;19;
75946;PMS5003;64628;50.104;14.614;2023-06-26T02:01:54;28;24;
75946;PMS5003;64628;50.104;14.614;2023-06-26T02:04:19;24;21;
75946;PMS5003;64628;50.104;14.614;2023-06-26T02:06:44;28;27;
75946;PMS5003;64628;50.104;14.614;2023-06-26T02:09:10;25;24;
75946;PMS5003;64628;50.104;14.614;2023-06-26T02:11:35;23;22;
75946;PMS5003;64628;50.104;14.614;2023-06-26T02:14:01;26;26;
75946;PMS5003;64628;50.104;14.614;2023-06-26T02:16:26;27;27;
75946;PMS5003;64628;50.104;14.614;2023-06-26T02:18:52;30;29;
75946;PMS5003;64628;50.104;14.614;2023-06-26T02:21:18;27;25;
75946;PMS5003;64628;50.104;14.614;2023-06-26T02:23:44;29;28;
75946;PMS5003;64628;50.104;14.614;2023-06-26T02:26:09;25;25;
75946;PMS5003;64628;50.104;14.614;2023-06-26T02:28:35;28;27;
75946;PMS5003;64628;50.104;14.614;2023-06-26T02:31:01;29;28;
75946;PMS5003;64628;50.104;14.614;2023-06-26T02:33:26;26;26;
75946;PMS5003;64628;50.104;14.614;2023-06-26T02:35:52;27;24;
75946;PMS5003;64628;50.104;14.614;2023-06-26T02:38:18;24;23;
75946;PMS5003;64628;50.104;14.614;2023-06-26T02:40:43;28;26;
75946;PMS5003;64628;50.104;14.614;2023-06-26T02:43:09;26;26;
75946;PMS5003;64628;50.104;14.614;2023-06-26T02:45:35;23;21;
75946;PMS5003;64628;50.104;14.614;2023-06-26T02:48:00;24;24;
75946;PMS5003;64628;50.104;14.614;2023-06-26T02:50:26;31;28;
75946;PMS5003;64628;50.104;14.614;2023-06-26T02:52:51;31;29;
75946;PMS5003;64628;50.104;14.614;2023-06-26T02:55:17;27;26;
75946;PMS5003;64628;50.104;14.614;2023-06-26T02:57:42;28;26;
75946;PMS5003;64628;50.104;14.614;2023-06-26T03:00:08;27;26;
75946;PMS5003;64628;50.104;14.614;2023-06-26T03:02:33;26;25;
75946;PMS5003;64628;50.104;14.614;2023-06-26T03:04:59;22;19;
75946;PMS5003;64628;50.104;14.614;2023-06-26T03:07:24;24;24;
75946;PMS5003;64628;50.104;14.614;2023-06-26T03:09:49;17;17;
75946;PMS5003;64628;50.104;14.614;2023-06-26T03:12:15;25;24;
75946;PMS5003;64628;50.104;14.614;2023-06-26T03:14:41;30;26;
75946;PMS5003;64628;50.104;14.614;2023-06-26T03:17:06;21;19;
75946;PMS5003;64628;50.104;14.614;2023-06-26T03:19:32;23;21;
75946;PMS5003;64628;50.104;14.614;2023-06-26T03:21:57;25;25;
75946;PMS5003;64628;50.104;14.614;2023-06-26T03:24:23;29;28;
75946;PMS5003;64628;50.104;14.614;2023-06-26T03:26:48;24;23;
75946;PMS5003;64628;50.104;14.614;2023-06-26T03:29:13;31;27;
75946;PMS5003;64628;50.104;14.614;2023-06-26T03:31:39;29;27;
75946;PMS5003;64628;50.104;14.614;2023-06-26T03:34:05;29;28;
75946;PMS5003;64628;50.104;14.614;2023-06-26T03:36:30;28;27;
75946;PMS5003;64628;50.104;14.614;2023-06-26T03:38:55;30;28;
75946;PMS5003;64628;50.104;14.614;2023-06-26T03:41:21;29;29;
75946;PMS5003;64628;50.104;14.614;2023-06-26T03:43:46;28;28;
75946;PMS5003;64628;50.104;14.614;2023-06-26T03:46:12;31;28;
75946;PMS5003;64628;50.104;14.614;2023-06-26T03:48:37;29;29;
75946;PMS5003;64628;50.104;14.614;2023-06-26T03:51:02;26;25;
75946;PMS5003;64628;50.104;14.614;2023-06-26T03:53:28;29;22;
75946;PMS5003;64628;50.104;14.614;2023-06-26T03:55:53;28;26;
75946;PMS5003;64628;50.104;14.614;2023-06-26T03:58:18;26;26;
75946;PMS5003;64628;50.104;14.614;2023-06-26T04:00:44;25;22;
75946;PMS5003;64628;50.104;14.614;2023-06-26T04:03:09;32;29;
75946;PMS5003;64628;50.104;14.614;2023-06-26T04:05:34;27;27;
75946;PMS5003;64628;50.104;14.614;2023-06-26T04:08:00;23;22;
75946;PMS5003;64628;50.104;14.614;2023-06-26T04:10:26;26;23;
75946;PMS5003;64628;50.104;14.614;2023-06-26T04:12:52;33;28;
75946;PMS5003;64628;50.104;14.614;2023-06-26T04:15:17;36;36;
75946;PMS5003;64628;50.104;14.614;2023-06-26T04:17:43;32;30;
75946;PMS5003;64628;50.104;14.614;2023-06-26T04:20:08;38;37;
75946;PMS5003;64628;50.104;14.614;2023-06-26T04:22:33;43;39;
75946;PMS5003;64628;50.104;14.614;2023-06-26T04:25:02;28;27;
75946;PMS5003;64628;50.104;14.614;2023-06-26T04:27:24;29;25;
75946;PMS5003;64628;50.104;14.614;2023-06-26T04:29:50;39;34;
75946;PMS5003;64628;50.104;14.614;2023-06-26T04:32:15;26;25;
75946;PMS5003;64628;50.104;14.614;2023-06-26T04:34:40;33;33;
75946;PMS5003;64628;50.104;14.614;2023-06-26T04:37:06;31;30;
75946;PMS5003;64628;50.104;14.614;2023-06-26T04:39:31;32;29;
75946;PMS5003;64628;50.104;14.614;2023-06-26T04:41:56;33;30;
75946;PMS5003;64628;50.104;14.614;2023-06-26T04:44:22;22;21;
75946;PMS5003;64628;50.104;14.614;2023-06-26T04:46:47;24;23;
75946;PMS5003;64628;50.104;14.614;2023-06-26T04:49:13;26;24;
75946;PMS5003;64628;50.104;14.614;2023-06-26T04:51:38;26;25;
75946;PMS5003;64628;50.104;14.614;2023-06-26T04:54:04;26;24;
75946;PMS5003;64628;50.104;14.614;2023-06-26T04:56:29;24;23;
75946;PMS5003;64628;50.104;14.614;2023-06-26T04:58:54;22;22;
75946;PMS5003;64628;50.104;14.614;2023-06-26T05:01:19;24;23;
75946;PMS5003;64628;50.104;14.614;2023-06-26T05:03:44;20;20;
75946;PMS5003;64628;50.104;14.614;2023-06-26T05:06:10;23;23;
75946;PMS5003;64628;50.104;14.614;2023-06-26T05:08:35;19;18;
75946;PMS5003;64628;50.104;14.614;2023-06-26T05:11:00;18;17;
75946;PMS5003;64628;50.104;14.614;2023-06-26T05:13:25;23;22;
75946;PMS5003;64628;50.104;14.614;2023-06-26T05:15:51;24;22;
75946;PMS5003;64628;50.104;14.614;2023-06-26T05:18:16;23;21;
75946;PMS5003;64628;50.104;14.614;2023-06-26T05:20:42;22;22;
75946;PMS5003;64628;50.104;14.614;2023-06-26T05:23:08;19;18;
75946;PMS5003;64628;50.104;14.614;2023-06-26T05:25:33;25;20;
75946;PMS5003;64628;50.104;14.614;2023-06-26T05:27:59;24;23;
75946;PMS5003;64628;50.104;14.614;2023-06-26T05:30:24;25;24;
75946;PMS5003;64628;50.104;14.614;2023-06-26T05:32:49;27;27;
75946;PMS5003;64628;50.104;14.614;2023-06-26T05:35:14;20;20;
75946;PMS5003;64628;50.104;14.614;2023-06-26T05:37:40;19;17;
75946;PMS5003;64628;50.104;14.614;2023-06-26T05:40:06;21;21;
75946;PMS5003;64628;50.104;14.614;2023-06-26T05:42:31;26;22;
75946;PMS5003;64628;50.104;14.614;2023-06-26T05:44:56;23;22;
75946;PMS5003;64628;50.104;14.614;2023-06-26T05:47:21;26;22;
75946;PMS5003;64628;50.104;14.614;2023-06-26T05:49:47;18;16;
75946;PMS5003;64628;50.104;14.614;2023-06-26T05:52:13;20;18;
75946;PMS5003;64628;50.104;14.614;2023-06-26T05:54:38;23;19;
75946;PMS5003;64628;50.104;14.614;2023-06-26T05:57:04;21;21;
75946;PMS5003;64628;50.104;14.614;2023-06-26T05:59:28;25;23;
75946;PMS5003;64628;50.104;14.614;2023-06-26T06:01:54;23;21;
75946;PMS5003;64628;50.104;14.614;2023-06-26T06:04:19;17;17;
75946;PMS5003;64628;50.104;14.614;2023-06-26T06:06:45;18;18;
75946;PMS5003;64628;50.104;14.614;2023-06-26T06:09:10;19;19;
75946;PMS5003;64628;50.104;14.614;2023-06-26T06:11:35;17;17;
75946;PMS5003;64628;50.104;14.614;2023-06-26T06:14:00;19;18;
75946;PMS5003;64628;50.104;14.614;2023-06-26T06:16:26;19;16;
75946;PMS5003;64628;50.104;14.614;2023-06-26T06:18:52;17;17;
75946;PMS5003;64628;50.104;14.614;2023-06-26T06:21:17;17;17;
75946;PMS5003;64628;50.104;14.614;2023-06-26T06:23:42;21;20;
75946;PMS5003;64628;50.104;14.614;2023-06-26T06:26:08;22;20;
75946;PMS5003;64628;50.104;14.614;2023-06-26T06:28:34;19;16;
75946;PMS5003;64628;50.104;14.614;2023-06-26T06:31:00;16;16;
75946;PMS5003;64628;50.104;14.614;2023-06-26T06:33:25;22;19;
75946;PMS5003;64628;50.104;14.614;2023-06-26T06:35:51;14;13;
75946;PMS5003;64628;50.104;14.614;2023-06-26T06:38:16;13;12;
75946;PMS5003;64628;50.104;14.614;2023-06-26T06:40:42;19;16;
75946;PMS5003;64628;50.104;14.614;2023-06-26T06:43:07;13;13;
75946;PMS5003;64628;50.104;14.614;2023-06-26T06:45:33;18;18;
75946;PMS5003;64628;50.104;14.614;2023-06-26T06:47:58;13;13;
75946;PMS5003;64628;50.104;14.614;2023-06-26T06:50:24;17;13;
75946;PMS5003;64628;50.104;14.614;2023-06-26T06:52:50;13;13;
75946;PMS5003;64628;50.104;14.614;2023-06-26T06:55:16;13;13;
75946;PMS5003;64628;50.104;14.614;2023-06-26T06:57:42;15;13;
75946;PMS5003;64628;50.104;14.614;2023-06-26T07:00:08;16;14;
75946;PMS5003;64628;50.104;14.614;2023-06-26T07:02:33;16;14;
75946;PMS5003;64628;50.104;14.614;2023-06-26T07:04:58;16;12;
75946;PMS5003;64628;50.104;14.614;2023-06-26T07:07:27;11;10;
75946;PMS5003;64628;50.104;14.614;2023-06-26T07:09:50;9;9;
75946;PMS5003;64628;50.104;14.614;2023-06-26T07:12:15;11;10;
75946;PMS5003;64628;50.104;14.614;2023-06-26T07:14:41;15;13;
75946;PMS5003;64628;50.104;14.614;2023-06-26T07:17:06;9;8;
75946;PMS5003;64628;50.104;14.614;2023-06-26T07:19:32;11;11;
75946;PMS5003;64628;50.104;14.614;2023-06-26T07:21:57;11;11;
75946;PMS5003;64628;50.104;14.614;2023-06-26T07:24:23;11;11;
75946;PMS5003;64628;50.104;14.614;2023-06-26T07:26:48;12;12;
75946;PMS5003;64628;50.104;14.614;2023-06-26T07:29:14;10;10;
75946;PMS5003;64628;50.104;14.614;2023-06-26T07:31:39;10;10;
75946;PMS5003;64628;50.104;14.614;2023-06-26T07:34:05;9;9;
75946;PMS5003;64628;50.104;14.614;2023-06-26T07:36:30;11;11;
75946;PMS5003;64628;50.104;14.614;2023-06-26T07:38:55;11;9;
75946;PMS5003;64628;50.104;14.614;2023-06-26T07:41:21;10;10;
75946;PMS5003;64628;50.104;14.614;2023-06-26T07:43:46;14;12;
75946;PMS5003;64628;50.104;14.614;2023-06-26T07:46:12;11;11;
75946;PMS5003;64628;50.104;14.614;2023-06-26T07:48:37;9;9;
75946;PMS5003;64628;50.104;14.614;2023-06-26T07:51:03;11;11;
75946;PMS5003;64628;50.104;14.614;2023-06-26T07:53:28;14;13;
75946;PMS5003;64628;50.104;14.614;2023-06-26T07:55:54;15;12;
75946;PMS5003;64628;50.104;14.614;2023-06-26T07:58:19;13;13;
75946;PMS5003;64628;50.104;14.614;2023-06-26T08:00:45;13;12;
75946;PMS5003;64628;50.104;14.614;2023-06-26T08:03:10;12;11;
75946;PMS5003;64628;50.104;14.614;2023-06-26T08:05:36;15;11;
75946;PMS5003;64628;50.104;14.614;2023-06-26T08:08:02;12;11;
75946;PMS5003;64628;50.104;14.614;2023-06-26T08:10:27;10;10;
75946;PMS5003;64628;50.104;14.614;2023-06-26T08:12:53;13;11;
75946;PMS5003;64628;50.104;14.614;2023-06-26T08:15:18;10;10;
75946;PMS5003;64628;50.104;14.614;2023-06-26T08:17:43;12;12;
75946;PMS5003;64628;50.104;14.614;2023-06-26T08:20:10;13;12;
75946;PMS5003;64628;50.104;14.614;2023-06-26T08:22:35;13;12;
75946;PMS5003;64628;50.104;14.614;2023-06-26T08:25:01;14;12;
75946;PMS5003;64628;50.104;14.614;2023-06-26T08:27:26;11;10;
75946;PMS5003;64628;50.104;14.614;2023-06-26T08:29:52;16;13;
75946;PMS5003;64628;50.104;14.614;2023-06-26T08:32:17;14;13;
75946;PMS5003;64628;50.104;14.614;2023-06-26T08:34:43;14;11;
75946;PMS5003;64628;50.104;14.614;2023-06-26T08:37:08;13;11;
75946;PMS5003;64628;50.104;14.614;2023-06-26T08:39:34;13;13;
75946;PMS5003;64628;50.104;14.614;2023-06-26T08:42:00;15;13;
75946;PMS5003;64628;50.104;14.614;2023-06-26T08:44:25;11;11;
75946;PMS5003;64628;50.104;14.614;2023-06-26T08:46:50;13;13;
75946;PMS5003;64628;50.104;14.614;2023-06-26T08:49:18;13;13;
75946;PMS5003;64628;50.104;14.614;2023-06-26T08:51:42;11;10;
75946;PMS5003;64628;50.104;14.614;2023-06-26T08:54:08;10;9;
75946;PMS5003;64628;50.104;14.614;2023-06-26T08:56:35;12;12;
75946;PMS5003;64628;50.104;14.614;2023-06-26T08:58:59;12;12;
75946;PMS5003;64628;50.104;14.614;2023-06-26T09:01:24;12;11;
75946;PMS5003;64628;50.104;14.614;2023-06-26T09:03:50;11;11;
75946;PMS5003;64628;50.104;14.614;2023-06-26T09:06:15;11;11;
75946;PMS5003;64628;50.104;14.614;2023-06-26T09:08:41;12;12;
75946;PMS5003;64628;50.104;14.614;2023-06-26T09:11:06;14;14;
75946;PMS5003;64628;50.104;14.614;2023-06-26T09:13:32;13;12;
75946;PMS5003;64628;50.104;14.614;2023-06-26T09:15:57;13;13;
75946;PMS5003;64628;50.104;14.614;2023-06-26T09:18:23;13;13;
75946;PMS5003;64628;50.104;14.614;2023-06-26T09:20:48;14;14;
75946;PMS5003;64628;50.104;14.614;2023-06-26T09:23:14;12;12;
75946;PMS5003;64628;50.104;14.614;2023-06-26T09:25:40;15;15;
75946;PMS5003;64628;50.104;14.614;2023-06-26T09:28:05;15;15;
75946;PMS5003;64628;50.104;14.614;2023-06-26T09:30:32;15;15;
75946;PMS5003;64628;50.104;14.614;2023-06-26T09:32:56;16;14;
75946;PMS5003;64628;50.104;14.614;2023-06-26T09:35:21;13;12;
75946;PMS5003;64628;50.104;14.614;2023-06-26T09:37:46;12;12;
75946;PMS5003;64628;50.104;14.614;2023-06-26T09:40:13;14;14;
75946;PMS5003;64628;50.104;14.614;2023-06-26T09:42:37;15;13;
75946;PMS5003;64628;50.104;14.614;2023-06-26T09:45:03;13;13;
75946;PMS5003;64628;50.104;14.614;2023-06-26T09:47:30;15;14;
75946;PMS5003;64628;50.104;14.614;2023-06-26T09:49:54;15;15;
75946;PMS5003;64628;50.104;14.614;2023-06-26T09:52:20;15;13;
75946;PMS5003;64628;50.104;14.614;2023-06-26T09:54:45;18;16;
75946;PMS5003;64628;50.104;14.614;2023-06-26T09:57:11;16;15;
75946;PMS5003;64628;50.104;14.614;2023-06-26T09:59:36;12;12;
75946;PMS5003;64628;50.104;14.614;2023-06-26T10:02:02;14;12;
75946;PMS5003;64628;50.104;14.614;2023-06-26T10:04:27;16;14;
75946;PMS5003;64628;50.104;14.614;2023-06-26T10:06:54;14;14;
75946;PMS5003;64628;50.104;14.614;2023-06-26T10:09:18;12;12;
75946;PMS5003;64628;50.104;14.614;2023-06-26T10:11:45;17;15;
75946;PMS5003;64628;50.104;14.614;2023-06-26T10:14:09;19;15;
75946;PMS5003;64628;50.104;14.614;2023-06-26T10:16:35;16;15;
75946;PMS5003;64628;50.104;14.614;2023-06-26T10:19:01;14;13;
75946;PMS5003;64628;50.104;14.614;2023-06-26T10:21:26;22;19;
75946;PMS5003;64628;50.104;14.614;2023-06-26T10:23:52;17;17;
75946;PMS5003;64628;50.104;14.614;2023-06-26T10:26:17;19;16;
75946;PMS5003;64628;50.104;14.614;2023-06-26T10:28:42;17;15;
75946;PMS5003;64628;50.104;14.614;2023-06-26T10:31:08;24;20;
75946;PMS5003;64628;50.104;14.614;2023-06-26T10:33:33;17;17;
75946;PMS5003;64628;50.104;14.614;2023-06-26T10:38:24;22;20;
75946;PMS5003;64628;50.104;14.614;2023-06-26T10:40:49;17;17;
75946;PMS5003;64628;50.104;14.614;2023-06-26T10:43:15;16;15;
75946;PMS5003;64628;50.104;14.614;2023-06-26T10:45:44;19;16;
75946;PMS5003;64628;50.104;14.614;2023-06-26T10:48:06;14;13;
75946;PMS5003;64628;50.104;14.614;2023-06-26T10:50:32;19;19;
75946;PMS5003;64628;50.104;14.614;2023-06-26T10:55:27;16;15;
75946;PMS5003;64628;50.104;14.614;2023-06-26T10:57:48;13;11;
75946;PMS5003;64628;50.104;14.614;2023-06-26T11:00:14;14;14;
75946;PMS5003;64628;50.104;14.614;2023-06-26T11:02:47;15;14;
75946;PMS5003;64628;50.104;14.614;2023-06-26T11:05:05;15;15;
75946;PMS5003;64628;50.104;14.614;2023-06-26T11:07:30;15;15;
75946;PMS5003;64628;50.104;14.614;2023-06-26T11:09:55;16;14;
75946;PMS5003;64628;50.104;14.614;2023-06-26T11:14:46;18;17;
75946;PMS5003;64628;50.104;14.614;2023-06-26T11:17:12;15;15;
75946;PMS5003;64628;50.104;14.614;2023-06-26T11:19:38;12;12;
75946;PMS5003;64628;50.104;14.614;2023-06-26T11:22:03;13;12;
75946;PMS5003;64628;50.104;14.614;2023-06-26T11:24:28;18;17;
75946;PMS5003;64628;50.104;14.614;2023-06-26T11:26:54;17;15;
75946;PMS5003;64628;50.104;14.614;2023-06-26T11:41:31;20;18;
75946;PMS5003;64628;50.104;14.614;2023-06-26T11:44:01;13;12;
75946;PMS5003;64628;50.104;14.614;2023-06-26T11:46:19;20;18;
75946;PMS5003;64628;50.104;14.614;2023-06-26T11:48:54;16;16;
75946;PMS5003;64628;50.104;14.614;2023-06-26T11:58:28;17;17;
75946;PMS5003;64628;50.104;14.614;2023-06-26T12:00:54;20;16;
75946;PMS5003;64628;50.104;14.614;2023-06-26T12:03:21;16;16;
75946;PMS5003;64628;50.104;14.614;2023-06-26T12:05:43;14;14;
75946;PMS5003;64628;50.104;14.614;2023-06-26T12:08:07;15;15;
75946;PMS5003;64628;50.104;14.614;2023-06-26T12:10:34;14;13;
75946;PMS5003;64628;50.104;14.614;2023-06-26T12:17:49;19;16;
75946;PMS5003;64628;50.104;14.614;2023-06-26T12:20:19;19;17;
75946;PMS5003;64628;50.104;14.614;2023-06-26T12:25:10;12;12;
75946;PMS5003;64628;50.104;14.614;2023-06-26T12:32:29;19;18;
75946;PMS5003;64628;50.104;14.614;2023-06-26T12:37:13;20;19;
75946;PMS5003;64628;50.104;14.614;2023-06-26T12:44:35;14;14;
75946;PMS5003;64628;50.104;14.614;2023-06-26T12:54:13;17;16;
75946;PMS5003;64628;50.104;14.614;2023-06-26T12:56:40;19;19;
75946;PMS5003;64628;50.104;14.614;2023-06-26T12:59:07;16;16;
75946;PMS5003;64628;50.104;14.614;2023-06-26T13:04:02;19;19;
75946;PMS5003;64628;50.104;14.614;2023-06-26T13:06:19;15;15;
75946;PMS5003;64628;50.104;14.614;2023-06-26T13:11:21;14;14;
75946;PMS5003;64628;50.104;14.614;2023-06-26T13:13:39;33;33;
75946;PMS5003;64628;50.104;14.614;2023-06-26T13:16:01;13;13;
75946;PMS5003;64628;50.104;14.614;2023-06-26T13:18:27;12;12;
75946;PMS5003;64628;50.104;14.614;2023-06-26T13:25:57;12;12;
75946;PMS5003;64628;50.104;14.614;2023-06-26T13:28:18;14;14;
75946;PMS5003;64628;50.104;14.614;2023-06-26T13:33:04;16;15;
75946;PMS5003;64628;50.104;14.614;2023-06-26T13:40:24;16;14;
75946;PMS5003;64628;50.104;14.614;2023-06-26T13:52:28;15;14;
75946;PMS5003;64628;50.104;14.614;2023-06-26T13:54:49;15;14;
75946;PMS5003;64628;50.104;14.614;2023-06-26T14:07:04;21;18;
75946;PMS5003;64628;50.104;14.614;2023-06-26T14:26:21;16;15;
75946;PMS5003;64628;50.104;14.614;2023-06-26T14:28:45;16;16;
75946;PMS5003;64628;50.104;14.614;2023-06-26T14:31:10;21;21;
75946;PMS5003;64628;50.104;14.614;2023-06-26T14:33:36;17;13;
75946;PMS5003;64628;50.104;14.614;2023-06-26T14:36:01;18;17;
75946;PMS5003;64628;50.104;14.614;2023-06-26T14:38:32;14;14;
75946;PMS5003;64628;50.104;14.614;2023-06-26T14:43:18;18;17;
75946;PMS5003;64628;50.104;14.614;2023-06-26T14:45:48;16;14;
75946;PMS5003;64628;50.104;14.614;2023-06-26T14:50:34;20;20;
75946;PMS5003;64628;50.104;14.614;2023-06-26T14:55:35;16;16;
75946;PMS5003;64628;50.104;14.614;2023-06-26T14:57:50;16;14;
75946;PMS5003;64628;50.104;14.614;2023-06-26T15:00:18;15;15;
75946;PMS5003;64628;50.104;14.614;2023-06-26T15:02:56;66;59;
75946;PMS5003;64628;50.104;14.614;2023-06-26T15:05:07;24;24;
75946;PMS5003;64628;50.104;14.614;2023-06-26T15:07:32;18;18;
75946;PMS5003;64628;50.104;14.614;2023-06-26T15:09:57;23;21;
75946;PMS5003;64628;50.104;14.614;2023-06-26T15:12:23;16;16;
75946;PMS5003;64628;50.104;14.614;2023-06-26T15:14:48;20;16;
75946;PMS5003;64628;50.104;14.614;2023-06-26T15:17:13;21;18;
75946;PMS5003;64628;50.104;14.614;2023-06-26T15:19:39;20;19;
75946;PMS5003;64628;50.104;14.614;2023-06-26T15:22:04;16;16;
75946;PMS5003;64628;50.104;14.614;2023-06-26T15:24:30;16;16;
75946;PMS5003;64628;50.104;14.614;2023-06-26T15:26:55;21;20;
75946;PMS5003;64628;50.104;14.614;2023-06-26T15:29:20;14;14;
75946;PMS5003;64628;50.104;14.614;2023-06-26T15:31:46;15;15;
75946;PMS5003;64628;50.104;14.614;2023-06-26T15:34:12;33;30;
75946;PMS5003;64628;50.104;14.614;2023-06-26T15:36:38;14;12;
75946;PMS5003;64628;50.104;14.614;2023-06-26T15:39:03;16;15;
75946;PMS5003;64628;50.104;14.614;2023-06-26T15:41:28;17;17;
75946;PMS5003;64628;50.104;14.614;2023-06-26T15:43:54;14;14;
75946;PMS5003;64628;50.104;14.614;2023-06-26T15:46:19;16;15;
75946;PMS5003;64628;50.104;14.614;2023-06-26T15:48:44;15;14;
75946;PMS5003;64628;50.104;14.614;2023-06-26T15:51:09;15;15;
75946;PMS5003;64628;50.104;14.614;2023-06-26T15:53:35;19;15;
75946;PMS5003;64628;50.104;14.614;2023-06-26T15:56:00;15;15;
75946;PMS5003;64628;50.104;14.614;2023-06-26T15:58:26;17;16;
75946;PMS5003;64628;50.104;14.614;2023-06-26T16:00:51;15;14;
75946;PMS5003;64628;50.104;14.614;2023-06-26T16:03:17;17;14;
75946;PMS5003;64628;50.104;14.614;2023-06-26T16:05:42;17;17;
75946;PMS5003;64628;50.104;14.614;2023-06-26T16:08:07;13;13;
75946;PMS5003;64628;50.104;14.614;2023-06-26T16:10:33;16;16;
75946;PMS5003;64628;50.104;14.614;2023-06-26T16:12:59;15;14;
75946;PMS5003;64628;50.104;14.614;2023-06-26T16:15:24;12;12;
75946;PMS5003;64628;50.104;14.614;2023-06-26T16:17:49;14;13;
75946;PMS5003;64628;50.104;14.614;2023-06-26T16:20:15;16;15;
75946;PMS5003;64628;50.104;14.614;2023-06-26T16:22:40;12;12;
75946;PMS5003;64628;50.104;14.614;2023-06-26T16:25:06;14;13;
75946;PMS5003;64628;50.104;14.614;2023-06-26T16:27:31;13;13;
75946;PMS5003;64628;50.104;14.614;2023-06-26T16:29:57;14;13;
75946;PMS5003;64628;50.104;14.614;2023-06-26T16:32:22;15;15;
75946;PMS5003;64628;50.104;14.614;2023-06-26T16:34:48;14;14;
75946;PMS5003;64628;50.104;14.614;2023-06-26T16:37:13;24;17;
75946;PMS5003;64628;50.104;14.614;2023-06-26T16:39:39;15;15;
75946;PMS5003;64628;50.104;14.614;2023-06-26T16:42:05;19;15;
75946;PMS5003;64628;50.104;14.614;2023-06-26T16:44:30;16;15;
75946;PMS5003;64628;50.104;14.614;2023-06-26T16:46:56;15;15;
75946;PMS5003;64628;50.104;14.614;2023-06-26T16:49:21;15;14;
75946;PMS5003;64628;50.104;14.614;2023-06-26T16:51:47;16;15;
75946;PMS5003;64628;50.104;14.614;2023-06-26T16:54:12;15;12;
75946;PMS5003;64628;50.104;14.614;2023-06-26T16:56:37;18;15;
75946;PMS5003;64628;50.104;14.614;2023-06-26T17:01:28;15;13;
75946;PMS5003;64628;50.104;14.614;2023-06-26T17:03:54;15;14;
75946;PMS5003;64628;50.104;14.614;2023-06-26T17:06:20;14;14;
75946;PMS5003;64628;50.104;14.614;2023-06-26T17:08:50;13;13;
75946;PMS5003;64628;50.104;14.614;2023-06-26T17:11:10;15;15;
75946;PMS5003;64628;50.104;14.614;2023-06-26T17:13:36;17;17;
75946;PMS5003;64628;50.104;14.614;2023-06-26T17:16:01;15;15;
75946;PMS5003;64628;50.104;14.614;2023-06-26T17:18:27;17;16;
75946;PMS5003;64628;50.104;14.614;2023-06-26T17:20:52;16;15;
75946;PMS5003;64628;50.104;14.614;2023-06-26T17:23:18;14;12;
75946;PMS5003;64628;50.104;14.614;2023-06-26T17:25:43;17;16;
75946;PMS5003;64628;50.104;14.614;2023-06-26T17:28:09;16;14;
75946;PMS5003;64628;50.104;14.614;2023-06-26T17:30:34;18;17;
75946;PMS5003;64628;50.104;14.614;2023-06-26T17:33:00;17;16;
75946;PMS5003;64628;50.104;14.614;2023-06-26T17:35:25;16;16;
75946;PMS5003;64628;50.104;14.614;2023-06-26T17:37:51;15;14;
75946;PMS5003;64628;50.104;14.614;2023-06-26T17:40:17;17;15;
75946;PMS5003;64628;50.104;14.614;2023-06-26T17:42:42;17;16;
75946;PMS5003;64628;50.104;14.614;2023-06-26T17:45:08;19;16;